Time;durP1;ratioP1;P1;durP2;ratioP2;P2;SDS_P1;SDS_P2;PMS_P1;PMS_P2;Temp;Humidity;BMP_temperature;BMP_pressure;BME280_temperature;BME280_humidity;BME280_pressure;Samples;Min_cycle;Max_cycle;Signal;HPM_P1;HPM_P2
2022/10/07 00:01:57;;;;;;;;;;;23.20;99.90;;;;;;5072834;28;19912;-80
2022/10/07 00:04:24;;;;;;;;;;;23.10;99.90;;;;;;5061818;28;19915;-84
2022/10/07 00:06:50;;;;;;;;;;;22.90;99.90;;;;;;5061801;28;20022;-82
2022/10/07 00:09:17;;;;;;;;;;;22.80;99.90;;;;;;5054283;28;20007;-83
2022/10/07 00:11:44;;;;;;;;;;;23.00;99.90;;;;;;5055037;28;20375;-83
2022/10/07 00:14:11;;;;;;;;;;;23.20;99.90;;;;;;5054707;28;19973;-84
2022/10/07 00:16:39;;;;;;;;;;;23.40;99.90;;;;;;5060064;28;19912;-80
2022/10/07 00:19:07;;;;;;;;;;;23.50;99.90;;;;;;5065203;28;19939;-81
2022/10/07 00:21:34;;;;;;;;;;;23.60;99.90;;;;;;5059371;28;19916;-80
2022/10/07 00:24:01;;;;;;;;;;;23.60;99.90;;;;;;5051917;28;19912;-81
2022/10/07 00:26:31;;;;;;;;;;;23.40;99.90;;;;;;5058898;28;20473;-81
2022/10/07 00:29:04;;;;;;;;;;;23.20;99.90;;;;;;5058887;28;19892;-82
2022/10/07 00:31:35;;;;;;;;;;;23.10;99.90;;;;;;5076052;28;19920;-80
2022/10/07 00:34:02;;;;;;;;;;;23.10;99.90;;;;;;5065441;28;19916;-80
2022/10/07 00:36:31;;;;;;;;;;;23.10;99.90;;;;;;5074097;28;19912;-78
2022/10/07 00:38:59;;;;;;;;;;;22.80;99.90;;;;;;5071643;28;19909;-80
2022/10/07 00:41:33;;;;;;;;;;;22.60;99.90;;;;;;5066067;28;19919;-82
2022/10/07 00:44:19;;;;;;;;;;;22.50;99.90;;;;;;5075070;28;19920;-80
2022/10/07 00:46:46;;;;;;;;;;;22.40;99.90;;;;;;5074237;28;19922;-79
2022/10/07 00:49:14;;;;;;;;;;;22.40;99.90;;;;;;5072940;28;19912;-81
2022/10/07 00:51:42;;;;;;;;;;;22.40;99.90;;;;;;5068856;28;19947;-80
2022/10/07 00:54:11;;;;;;;;;;;22.40;99.90;;;;;;5067504;28;19991;-81
2022/10/07 00:56:38;;;;;;;;;;;22.30;99.90;;;;;;5065081;28;19966;-81
2022/10/07 00:59:05;;;;;;;;;;;22.30;99.90;;;;;;5067537;28;19923;-80
2022/10/07 01:01:32;;;;;;;;;;;22.30;99.90;;;;;;5066961;28;20006;-80
2022/10/07 01:03:59;;;;;;;;;;;22.20;99.90;;;;;;5071234;28;19917;-82
2022/10/07 01:06:26;;;;;;;;;;;22.20;99.90;;;;;;5076554;28;20014;-82
2022/10/07 01:08:53;;;;;;;;;;;22.10;99.90;;;;;;5049897;28;19908;-81
2022/10/07 01:11:25;;;;;;;;;;;22.00;99.90;;;;;;5072807;28;19913;-83
2022/10/07 01:14:02;;;;;;;;;;;22.00;99.90;;;;;;5069834;28;19912;-83
2022/10/07 01:16:29;;;;;;;;;;;22.00;99.90;;;;;;5068548;28;19912;-79
2022/10/07 01:19:15;;;;;;;;;;;22.00;99.90;;;;;;5068237;28;19951;-80
2022/10/07 01:21:44;;;;;;;;;;;21.90;99.90;;;;;;5066645;28;19928;-81
2022/10/07 01:24:21;;;;;;;;;;;21.90;99.90;;;;;;5069050;28;19950;-83
2022/10/07 01:26:51;;;;;;;;;;;22.00;99.90;;;;;;5052354;28;19928;-79
2022/10/07 01:29:30;;;;;;;;;;;22.00;99.90;;;;;;5067096;28;19909;-79
2022/10/07 01:32:06;;;;;;;;;;;22.00;99.90;;;;;;5075044;28;19999;-81
2022/10/07 01:34:33;;;;;;;;;;;22.00;99.90;;;;;;5071164;28;19966;-79
2022/10/07 01:37:01;;;;;;;;;;;21.90;99.90;;;;;;5084830;28;19915;-79
2022/10/07 01:39:31;;;;;;;;;;;21.80;99.90;;;;;;5076790;28;20348;-79
2022/10/07 01:41:58;;;;;;;;;;;21.80;99.90;;;;;;5069090;28;19991;-80
2022/10/07 01:44:29;;;;;;;;;;;21.70;99.90;;;;;;5073017;28;20312;-80
2022/10/07 01:46:56;;;;;;;;;;;21.70;99.90;;;;;;5071135;28;20015;-81
2022/10/07 01:49:22;;;;;;;;;;;21.70;99.90;;;;;;5063261;28;19934;-79
2022/10/07 01:52:23;;;;;;;;;;;21.70;99.90;;;;;;5069523;28;19908;-80
2022/10/07 01:55:06;;;;;;;;;;;21.60;99.90;;;;;;5034555;28;20187;-82
2022/10/07 01:57:32;;;;;;;;;;;21.50;99.90;;;;;;5066533;28;20382;-80
2022/10/07 02:00:05;;;;;;;;;;;21.50;99.90;;;;;;5066974;28;19916;-80
2022/10/07 02:02:41;;;;;;;;;;;21.40;99.90;;;;;;5075818;28;20261;-78
2022/10/07 02:05:08;;;;;;;;;;;21.40;99.90;;;;;;5070594;28;19934;-80
2022/10/07 02:07:56;;;;;;;;;;;21.30;99.90;;;;;;5068788;28;19969;-79
2022/10/07 02:10:35;;;;;;;;;;;21.30;99.90;;;;;;5076245;28;19909;-78
2022/10/07 02:13:04;;;;;;;;;;;21.30;99.90;;;;;;5055042;28;20003;-80
2022/10/07 02:15:34;;;;;;;;;;;21.30;99.90;;;;;;5073866;28;19913;-77
2022/10/07 02:18:02;;;;;;;;;;;21.30;99.90;;;;;;5058918;28;19908;-82
2022/10/07 02:20:31;;;;;;;;;;;21.30;99.90;;;;;;5071834;28;19908;-78
2022/10/07 02:22:59;;;;;;;;;;;21.20;99.90;;;;;;5071780;28;19912;-82
2022/10/07 02:25:27;;;;;;;;;;;21.20;99.90;;;;;;5063912;28;19915;-83
2022/10/07 02:27:55;;;;;;;;;;;21.20;99.90;;;;;;5067735;28;20282;-79
2022/10/07 02:30:22;;;;;;;;;;;21.10;99.90;;;;;;5059363;28;19908;-78
2022/10/07 02:32:53;;;;;;;;;;;21.10;99.90;;;;;;5075717;28;19915;-79
2022/10/07 02:35:27;;;;;;;;;;;21.10;99.90;;;;;;5070454;28;19915;-78
2022/10/07 02:37:56;;;;;;;;;;;21.00;99.90;;;;;;5058538;28;19915;-79
2022/10/07 02:40:25;;;;;;;;;;;21.00;99.90;;;;;;5070371;28;19915;-77
2022/10/07 02:42:58;;;;;;;;;;;21.00;99.90;;;;;;5075051;28;19910;-81
2022/10/07 02:45:44;;;;;;;;;;;20.90;99.90;;;;;;5071368;28;20015;-79
2022/10/07 02:48:25;;;;;;;;;;;21.00;99.90;;;;;;5060593;28;19908;-79
2022/10/07 02:50:55;;;;;;;;;;;20.90;99.90;;;;;;5055665;28;20278;-78
2022/10/07 02:53:23;;;;;;;;;;;20.90;99.90;;;;;;5058347;28;19911;-80
2022/10/07 02:55:50;;;;;;;;;;;20.90;99.90;;;;;;5064814;28;20364;-79
2022/10/07 02:58:17;;;;;;;;;;;20.80;99.90;;;;;;5077939;28;19917;-79
2022/10/07 03:00:46;;;;;;;;;;;20.80;99.90;;;;;;5065125;28;20598;-80
2022/10/07 03:03:13;;;;;;;;;;;20.70;99.90;;;;;;5067792;28;19913;-79
2022/10/07 03:05:40;;;;;;;;;;;20.70;99.90;;;;;;5053295;28;19916;-78
2022/10/07 03:08:10;;;;;;;;;;;20.70;99.90;;;;;;5053144;28;20422;-80
2022/10/07 03:10:37;;;;;;;;;;;20.60;99.90;;;;;;5054039;28;19916;-79
2022/10/07 03:13:04;;;;;;;;;;;20.50;99.90;;;;;;5043114;28;19909;-79
2022/10/07 03:15:31;;;;;;;;;;;20.40;99.90;;;;;;5050686;28;19920;-77
2022/10/07 03:17:58;;;;;;;;;;;20.30;99.90;;;;;;5065998;28;19916;-79
2022/10/07 03:20:25;;;;;;;;;;;20.20;99.90;;;;;;5061665;28;19953;-80
2022/10/07 03:22:51;;;;;;;;;;;20.20;99.90;;;;;;5046777;28;19919;-84
2022/10/07 03:25:18;;;;;;;;;;;20.10;99.90;;;;;;5053863;28;20689;-80
2022/10/07 03:27:47;;;;;;;;;;;20.10;99.90;;;;;;5069811;28;19913;-79
2022/10/07 03:30:14;;;;;;;;;;;20.00;99.90;;;;;;5072073;28;19935;-82
2022/10/07 03:32:40;;;;;;;;;;;20.00;99.90;;;;;;5069978;28;19912;-79
2022/10/07 03:35:07;;;;;;;;;;;19.90;99.90;;;;;;5062116;28;19920;-81
2022/10/07 03:37:35;;;;;;;;;;;19.90;99.90;;;;;;5080256;28;19973;-77
2022/10/07 03:40:02;;;;;;;;;;;19.80;99.90;;;;;;5068926;28;20355;-86
2022/10/07 03:42:28;;;;;;;;;;;19.80;99.90;;;;;;5065684;28;19912;-79
2022/10/07 03:44:55;;;;;;;;;;;19.70;99.90;;;;;;5067114;28;19912;-79
2022/10/07 03:47:22;;;;;;;;;;;19.60;99.90;;;;;;5066424;28;19934;-81
2022/10/07 03:49:48;;;;;;;;;;;19.50;99.90;;;;;;5065687;28;19935;-87
2022/10/07 03:52:15;;;;;;;;;;;19.40;99.90;;;;;;5066613;28;19949;-78
2022/10/07 03:54:42;;;;;;;;;;;19.30;99.90;;;;;;5067696;28;19909;-78
2022/10/07 03:57:54;;;;;;;;;;;19.20;99.90;;;;;;5070364;28;19948;-79
2022/10/07 03:59:55;;;;;;;;;;;19.20;99.90;;;;;;5058819;28;19912;-83
2022/10/07 04:02:24;;;;;;;;;;;19.10;99.90;;;;;;5077944;28;20464;-79
2022/10/07 04:04:51;;;;;;;;;;;19.10;99.90;;;;;;5067065;28;19919;-84
2022/10/07 04:07:21;;;;;;;;;;;19.10;99.90;;;;;;5061161;28;19908;-83
2022/10/07 04:09:48;;;;;;;;;;;19.10;99.90;;;;;;5058896;28;20142;-81
2022/10/07 04:12:14;;;;;;;;;;;19.00;99.90;;;;;;5066284;28;19909;-83
2022/10/07 04:14:41;;;;;;;;;;;19.00;99.90;;;;;;5058711;28;20624;-80
2022/10/07 04:17:08;;;;;;;;;;;18.90;99.90;;;;;;5059294;28;19912;-83
2022/10/07 04:19:34;;;;;;;;;;;18.80;99.90;;;;;;5052106;28;21234;-79
2022/10/07 04:22:01;;;;;;;;;;;18.80;99.90;;;;;;5053852;28;19996;-82
2022/10/07 04:24:28;;;;;;;;;;;18.70;99.90;;;;;;5056256;28;20042;-85
2022/10/07 04:26:54;;;;;;;;;;;18.80;99.90;;;;;;5071941;28;19971;-80
2022/10/07 04:29:21;;;;;;;;;;;18.80;99.90;;;;;;5063385;28;19974;-82
2022/10/07 04:31:48;;;;;;;;;;;18.70;99.90;;;;;;5064816;28;20287;-81
2022/10/07 04:34:14;;;;;;;;;;;18.70;99.90;;;;;;5065593;28;19915;-84
2022/10/07 04:36:41;;;;;;;;;;;18.70;99.90;;;;;;5080679;28;19954;-82
2022/10/07 04:39:08;;;;;;;;;;;18.70;99.90;;;;;;5064449;28;19917;-82
2022/10/07 04:41:34;;;;;;;;;;;18.60;99.90;;;;;;5070189;28;19908;-86
2022/10/07 04:44:01;;;;;;;;;;;18.60;99.90;;;;;;5075696;28;19908;-83
2022/10/07 04:46:28;;;;;;;;;;;18.60;99.90;;;;;;5075262;28;19920;-83
2022/10/07 04:48:54;;;;;;;;;;;18.60;99.90;;;;;;5066039;28;19908;-82
2022/10/07 04:51:21;;;;;;;;;;;18.50;99.90;;;;;;5076847;28;19907;-89
2022/10/07 04:53:51;;;;;;;;;;;18.50;99.90;;;;;;5065907;28;20444;-87
2022/10/07 04:56:19;;;;;;;;;;;18.50;99.90;;;;;;5072473;28;20002;-88
2022/10/07 04:58:45;;;;;;;;;;;18.40;99.90;;;;;;5078670;28;19916;-87
2022/10/07 05:01:12;;;;;;;;;;;18.40;99.90;;;;;;5071380;28;19920;-83
2022/10/07 05:03:40;;;;;;;;;;;18.40;99.90;;;;;;5071479;28;19938;-82
2022/10/07 05:06:07;;;;;;;;;;;18.40;99.90;;;;;;5077716;28;19978;-87
2022/10/07 05:08:33;;;;;;;;;;;18.40;99.90;;;;;;5081283;28;19915;-87
2022/10/07 05:11:01;;;;;;;;;;;18.40;99.90;;;;;;5066716;28;20703;-87
2022/10/07 05:13:28;;;;;;;;;;;18.30;99.90;;;;;;5068908;28;19917;-90
2022/10/07 05:15:55;;;;;;;;;;;18.30;99.90;;;;;;5081046;28;20465;-83
2022/10/07 05:18:22;;;;;;;;;;;18.30;99.90;;;;;;5081692;28;19931;-84
2022/10/07 05:20:50;;;;;;;;;;;18.30;99.90;;;;;;5067453;28;19991;-87
2022/10/07 05:23:17;;;;;;;;;;;18.20;99.90;;;;;;5070411;28;19915;-81
2022/10/07 05:25:44;;;;;;;;;;;18.20;99.90;;;;;;5063660;28;20635;-84
2022/10/07 05:28:11;;;;;;;;;;;18.20;99.90;;;;;;5071398;28;19920;-85
2022/10/07 05:30:38;;;;;;;;;;;18.10;99.90;;;;;;5066929;28;19978;-85
2022/10/07 05:33:05;;;;;;;;;;;18.10;99.90;;;;;;5073882;28;19916;-83
2022/10/07 05:35:32;;;;;;;;;;;18.00;99.90;;;;;;5069513;28;20271;-80
2022/10/07 05:37:59;;;;;;;;;;;18.10;99.90;;;;;;5060215;28;20359;-86
2022/10/07 05:40:26;;;;;;;;;;;18.10;99.90;;;;;;5068309;28;19914;-81
2022/10/07 05:42:53;;;;;;;;;;;18.00;99.90;;;;;;5062223;28;19915;-85
2022/10/07 05:45:20;;;;;;;;;;;18.00;99.90;;;;;;5068744;28;20016;-82
2022/10/07 05:47:46;;;;;;;;;;;18.00;99.90;;;;;;5061738;28;19955;-84
2022/10/07 05:50:13;;;;;;;;;;;18.00;99.90;;;;;;5070031;28;19905;-83
2022/10/07 05:52:41;;;;;;;;;;;18.00;99.90;;;;;;5070422;28;19948;-83
2022/10/07 05:55:08;;;;;;;;;;;17.90;99.90;;;;;;5062275;28;19905;-83
2022/10/07 05:57:35;;;;;;;;;;;17.90;99.90;;;;;;5060009;28;19955;-79
2022/10/07 06:00:03;;;;;;;;;;;17.80;99.90;;;;;;5062974;28;20051;-82
2022/10/07 06:02:30;;;;;;;;;;;17.80;99.90;;;;;;5070568;28;19947;-76
2022/10/07 06:04:56;;;;;;;;;;;17.70;99.90;;;;;;5052315;28;19913;-78
2022/10/07 06:07:24;;;;;;;;;;;17.70;99.90;;;;;;5051399;28;19983;-77
2022/10/07 06:15:21;;;;;;;;;;;17.60;99.90;;;;;;5060893;28;19958;-78
2022/10/07 06:17:48;;;;;;;;;;;17.60;99.90;;;;;;5065608;28;20008;-80
2022/10/07 06:20:15;;;;;;;;;;;17.60;99.90;;;;;;5061562;28;20396;-76
2022/10/07 06:22:43;;;;;;;;;;;17.60;99.90;;;;;;5068245;28;19912;-81
2022/10/07 06:25:09;;;;;;;;;;;17.60;99.90;;;;;;5060369;28;20410;-79
2022/10/07 06:27:36;;;;;;;;;;;17.60;99.90;;;;;;5065213;28;20006;-77
2022/10/07 06:30:03;;;;;;;;;;;17.60;99.90;;;;;;5054714;28;20286;-77
2022/10/07 06:32:31;;;;;;;;;;;17.60;99.90;;;;;;5074414;28;19912;-78
2022/10/07 06:34:58;;;;;;;;;;;17.60;99.90;;;;;;5056858;28;19935;-79
2022/10/07 06:37:24;;;;;;;;;;;17.60;99.90;;;;;;5066858;28;20003;-82
2022/10/07 06:39:51;;;;;;;;;;;17.60;99.90;;;;;;5069660;28;19908;-76
2022/10/07 06:42:21;;;;;;;;;;;17.60;99.90;;;;;;5070456;28;20023;-76
2022/10/07 06:44:48;;;;;;;;;;;17.60;99.90;;;;;;5065516;28;20327;-75
2022/10/07 06:47:15;;;;;;;;;;;17.60;99.90;;;;;;5075645;28;20003;-80
2022/10/07 06:49:41;;;;;;;;;;;17.60;99.90;;;;;;5065183;28;19939;-79
2022/10/07 06:52:08;;;;;;;;;;;17.60;99.90;;;;;;5068570;28;19917;-78
2022/10/07 06:54:35;;;;;;;;;;;17.50;99.90;;;;;;5073091;28;19908;-79
2022/10/07 06:57:02;;;;;;;;;;;17.50;99.90;;;;;;5073132;28;19908;-77
2022/10/07 06:59:28;;;;;;;;;;;17.50;99.90;;;;;;5054972;28;19938;-75
2022/10/07 07:01:55;;;;;;;;;;;17.50;99.90;;;;;;5062526;28;20649;-76
2022/10/07 07:04:22;;;;;;;;;;;17.50;99.90;;;;;;5069518;28;19912;-77
2022/10/07 07:06:49;;;;;;;;;;;17.50;99.90;;;;;;5057525;28;19959;-75
2022/10/07 07:09:15;;;;;;;;;;;17.60;99.90;;;;;;5063747;28;19913;-83
2022/10/07 07:11:44;;;;;;;;;;;17.50;99.90;;;;;;5059621;28;19908;-79
2022/10/07 07:14:12;;;;;;;;;;;17.50;99.90;;;;;;5054443;28;20060;-82
2022/10/07 07:16:39;;;;;;;;;;;17.50;99.90;;;;;;5062065;28;20425;-81
2022/10/07 07:19:07;;;;;;;;;;;17.50;99.90;;;;;;5062936;28;19909;-78
2022/10/07 07:21:37;;;;;;;;;;;17.50;99.90;;;;;;5061952;28;19917;-80
2022/10/07 07:24:03;;;;;;;;;;;17.40;99.90;;;;;;5062324;28;19912;-75
2022/10/07 07:26:30;;;;;;;;;;;17.40;99.90;;;;;;5052670;28;19925;-77
2022/10/07 07:28:58;;;;;;;;;;;17.40;99.90;;;;;;5048915;28;20005;-78
2022/10/07 07:31:26;;;;;;;;;;;17.40;99.90;;;;;;5050690;28;19919;-77
2022/10/07 07:33:54;;;;;;;;;;;17.40;99.90;;;;;;5056218;28;19927;-78
2022/10/07 07:36:22;;;;;;;;;;;17.40;99.90;;;;;;5079948;28;19919;-77
2022/10/07 07:38:51;;;;;;;;;;;17.40;99.90;;;;;;5066237;28;19912;-74
2022/10/07 07:41:21;;;;;;;;;;;17.40;99.90;;;;;;5071080;28;19912;-78
2022/10/07 07:43:49;;;;;;;;;;;17.40;99.90;;;;;;5065996;28;19912;-78
2022/10/07 07:46:16;;;;;;;;;;;17.40;99.90;;;;;;5058497;28;20003;-79
2022/10/07 07:48:43;;;;;;;;;;;17.40;99.90;;;;;;5057890;28;19919;-83
2022/10/07 07:51:09;;;;;;;;;;;17.40;99.90;;;;;;5061038;28;19963;-84
2022/10/07 07:53:37;;;;;;;;;;;17.40;99.90;;;;;;5068901;28;19917;-81
2022/10/07 07:56:04;;;;;;;;;;;17.40;99.90;;;;;;5068948;28;20007;-81
2022/10/07 07:58:31;;;;;;;;;;;17.40;99.90;;;;;;5069456;28;19915;-76
2022/10/07 08:00:58;;;;;;;;;;;17.40;99.90;;;;;;5074686;28;19908;-81
2022/10/07 08:03:26;;;;;;;;;;;17.40;99.90;;;;;;5064300;28;20364;-80
2022/10/07 08:05:53;;;;;;;;;;;17.30;99.90;;;;;;5054720;28;19959;-81
2022/10/07 08:08:20;;;;;;;;;;;17.40;99.90;;;;;;5061926;28;19916;-83
2022/10/07 08:10:46;;;;;;;;;;;17.40;99.90;;;;;;5075161;28;19912;-82
2022/10/07 08:13:13;;;;;;;;;;;17.30;99.90;;;;;;5069328;28;19958;-83
2022/10/07 08:15:40;;;;;;;;;;;17.30;99.90;;;;;;5061068;28;19998;-78
2022/10/07 08:18:07;;;;;;;;;;;17.30;99.90;;;;;;5068281;28;19913;-84
2022/10/07 08:20:35;;;;;;;;;;;17.30;99.90;;;;;;5058616;28;19908;-80
2022/10/07 08:23:05;;;;;;;;;;;17.30;99.90;;;;;;5069879;28;19915;-81
2022/10/07 08:25:32;;;;;;;;;;;17.30;99.90;;;;;;5070849;28;20366;-83
2022/10/07 08:27:59;;;;;;;;;;;17.30;99.90;;;;;;5066994;28;19913;-83
2022/10/07 08:30:26;;;;;;;;;;;17.30;99.90;;;;;;5071552;28;20247;-83
2022/10/07 08:32:53;;;;;;;;;;;17.30;99.90;;;;;;5071348;28;19912;-81
2022/10/07 08:35:20;;;;;;;;;;;17.30;99.90;;;;;;5062439;28;19924;-84
2022/10/07 08:37:47;;;;;;;;;;;17.30;99.90;;;;;;5062847;28;20361;-83
2022/10/07 08:40:14;;;;;;;;;;;17.30;99.90;;;;;;5065657;28;20349;-80
2022/10/07 08:42:42;;;;;;;;;;;17.30;99.90;;;;;;5073208;28;19913;-83
2022/10/07 08:45:13;;;;;;;;;;;17.30;99.90;;;;;;5063996;28;19908;-77
2022/10/07 08:47:44;;;;;;;;;;;17.30;99.90;;;;;;5064843;28;19931;-81
2022/10/07 08:50:16;;;;;;;;;;;17.30;99.90;;;;;;5071030;28;19919;-84
2022/10/07 08:53:00;;;;;;;;;;;17.30;99.90;;;;;;5062345;28;19952;-85
2022/10/07 08:55:30;;;;;;;;;;;17.30;99.90;;;;;;5070397;28;19912;-83
2022/10/07 08:58:03;;;;;;;;;;;17.30;99.90;;;;;;5073089;28;19916;-84
2022/10/07 09:00:34;;;;;;;;;;;17.20;99.90;;;;;;5074402;28;19908;-81
2022/10/07 09:03:15;;;;;;;;;;;17.20;99.90;;;;;;5080621;28;19908;-82
2022/10/07 09:05:45;;;;;;;;;;;17.20;99.90;;;;;;5078396;28;19928;-82
2022/10/07 09:08:16;;;;;;;;;;;17.20;99.90;;;;;;5093684;28;19920;-83
2022/10/07 09:10:47;;;;;;;;;;;17.20;99.90;;;;;;5080472;28;19909;-83
2022/10/07 09:13:19;;;;;;;;;;;17.20;99.90;;;;;;5063550;28;19916;-85
2022/10/07 09:15:59;;;;;;;;;;;17.10;99.90;;;;;;5060917;28;19912;-84
2022/10/07 09:18:41;;;;;;;;;;;17.10;99.90;;;;;;5068714;28;19959;-83
2022/10/07 09:21:15;;;;;;;;;;;17.10;99.90;;;;;;5073423;28;19912;-82
2022/10/07 09:23:42;;;;;;;;;;;17.10;99.90;;;;;;5073495;28;19916;-83
2022/10/07 09:26:13;;;;;;;;;;;17.10;99.90;;;;;;5069885;28;19920;-82
2022/10/07 09:28:40;;;;;;;;;;;17.10;99.90;;;;;;5059074;28;19916;-82
2022/10/07 09:31:07;;;;;;;;;;;17.10;99.90;;;;;;5071430;28;19908;-83
2022/10/07 09:33:40;;;;;;;;;;;17.10;99.90;;;;;;5067396;28;19961;-84
2022/10/07 09:36:08;;;;;;;;;;;17.10;99.90;;;;;;5051782;28;19909;-85
2022/10/07 09:38:36;;;;;;;;;;;17.10;99.90;;;;;;5056347;28;19912;-82
2022/10/07 09:41:15;;;;;;;;;;;17.10;99.90;;;;;;5071318;28;20017;-82
2022/10/07 09:44:01;;;;;;;;;;;17.10;99.90;;;;;;5064313;28;19905;-81
2022/10/07 09:46:45;;;;;;;;;;;17.10;99.90;;;;;;5057487;28;19916;-84
2022/10/07 09:49:27;;;;;;;;;;;17.00;99.90;;;;;;5058835;28;19909;-82
2022/10/07 09:52:04;;;;;;;;;;;17.00;99.90;;;;;;5068819;28;19912;-81
2022/10/07 09:54:32;;;;;;;;;;;17.00;99.90;;;;;;5069296;28;19908;-83
2022/10/07 09:57:00;;;;;;;;;;;17.00;99.90;;;;;;5065425;28;19985;-84
2022/10/07 09:59:29;;;;;;;;;;;17.00;99.90;;;;;;5069540;28;19908;-83
2022/10/07 10:02:18;;;;;;;;;;;17.00;99.90;;;;;;5069286;28;20377;-81
2022/10/07 10:04:52;;;;;;;;;;;17.00;99.90;;;;;;5054287;28;20276;-82
2022/10/07 10:07:30;;;;;;;;;;;17.00;99.90;;;;;;5069359;28;19913;-83
2022/10/07 10:10:02;;;;;;;;;;;17.00;99.90;;;;;;5055012;28;20315;-84
2022/10/07 10:12:31;;;;;;;;;;;17.00;99.90;;;;;;5066013;28;20371;-80
2022/10/07 10:14:59;;;;;;;;;;;16.90;99.90;;;;;;5068813;28;19999;-80
2022/10/07 10:17:34;;;;;;;;;;;17.00;99.90;;;;;;5057939;28;19916;-82
2022/10/07 10:20:25;;;;;;;;;;;16.90;99.90;;;;;;5065996;28;20027;-78
2022/10/07 10:22:52;;;;;;;;;;;16.90;99.90;;;;;;5065444;28;19919;-82
2022/10/07 10:28:29;;;;;;;;;;;16.90;99.90;;;;;;5059452;28;19923;-80
2022/10/07 10:31:02;;;;;;;;;;;16.90;99.90;;;;;;5064204;28;19937;-81
2022/10/07 10:33:41;;;;;;;;;;;16.90;99.90;;;;;;5066937;28;20286;-76
2022/10/07 10:36:19;;;;;;;;;;;16.90;99.90;;;;;;5067865;28;20314;-80
2022/10/07 10:39:00;;;;;;;;;;;16.90;99.90;;;;;;5068824;28;19951;-79
2022/10/07 10:41:45;;;;;;;;;;;16.80;99.90;;;;;;5077193;28;19909;-81
2022/10/07 10:44:19;;;;;;;;;;;16.80;99.90;;;;;;5061248;28;19904;-78
2022/10/07 10:46:46;;;;;;;;;;;16.80;99.90;;;;;;5066603;28;19917;-82
2022/10/07 10:49:18;;;;;;;;;;;16.80;99.90;;;;;;5063653;28;19954;-80
2022/10/07 10:51:53;;;;;;;;;;;16.80;99.90;;;;;;5071204;28;19939;-80
2022/10/07 10:54:38;;;;;;;;;;;16.80;99.90;;;;;;5047950;28;19916;-81
2022/10/07 10:57:15;;;;;;;;;;;16.80;99.90;;;;;;5069597;28;20010;-81
2022/10/07 10:59:52;;;;;;;;;;;16.80;99.90;;;;;;5059756;28;19908;-82
2022/10/07 11:02:25;;;;;;;;;;;16.80;99.90;;;;;;5064506;28;20284;-80
2022/10/07 11:04:56;;;;;;;;;;;16.80;99.90;;;;;;5069458;28;19908;-81
2022/10/07 11:07:28;;;;;;;;;;;16.80;99.90;;;;;;5081069;28;19912;-81
2022/10/07 11:10:17;;;;;;;;;;;16.80;99.90;;;;;;5063628;28;20536;-81
2022/10/07 11:12:47;;;;;;;;;;;16.80;99.90;;;;;;5063687;28;19915;-82
2022/10/07 11:15:20;;;;;;;;;;;16.80;99.90;;;;;;5076801;28;19908;-81
2022/10/07 11:17:49;;;;;;;;;;;16.80;99.90;;;;;;5076042;28;20318;-83
2022/10/07 11:20:18;;;;;;;;;;;16.80;99.90;;;;;;5068663;28;19999;-82
2022/10/07 11:22:52;;;;;;;;;;;16.80;99.90;;;;;;5067664;28;19912;-79
2022/10/07 11:25:31;;;;;;;;;;;16.80;99.90;;;;;;5064487;28;19908;-81
2022/10/07 11:28:03;;;;;;;;;;;16.80;99.90;;;;;;5082443;28;20027;-82
2022/10/07 11:30:34;;;;;;;;;;;16.80;99.90;;;;;;5072092;28;19904;-82
2022/10/07 11:33:00;;;;;;;;;;;16.80;99.90;;;;;;5070494;28;19920;-81
2022/10/07 11:35:27;;;;;;;;;;;16.80;99.90;;;;;;5071530;28;20290;-80
2022/10/07 11:38:06;;;;;;;;;;;16.80;99.90;;;;;;5063022;28;20347;-80
2022/10/07 11:40:34;;;;;;;;;;;16.80;99.90;;;;;;5071736;28;19909;-81
2022/10/07 11:43:12;;;;;;;;;;;16.80;99.90;;;;;;5069791;28;19912;-82
2022/10/07 11:45:41;;;;;;;;;;;16.80;99.90;;;;;;5068301;28;20386;-80
2022/10/07 11:48:13;;;;;;;;;;;16.80;99.90;;;;;;5072791;28;19919;-81
2022/10/07 11:50:53;;;;;;;;;;;16.80;99.90;;;;;;5061948;28;19916;-82
2022/10/07 11:53:22;;;;;;;;;;;16.80;99.90;;;;;;5068853;28;19928;-84
2022/10/07 11:56:00;;;;;;;;;;;16.80;99.90;;;;;;5067126;28;19919;-80
2022/10/07 11:58:28;;;;;;;;;;;16.80;99.90;;;;;;5057205;28;19908;-80
2022/10/07 12:01:14;;;;;;;;;;;16.80;99.90;;;;;;5071231;28;19931;-83
2022/10/07 12:03:41;;;;;;;;;;;16.80;99.90;;;;;;5056733;28;20299;-82
2022/10/07 12:06:10;;;;;;;;;;;16.80;99.90;;;;;;5058653;28;19943;-81
2022/10/07 12:08:39;;;;;;;;;;;16.80;99.90;;;;;;5062417;28;19912;-82
2022/10/07 12:11:12;;;;;;;;;;;16.80;99.90;;;;;;5053706;28;20359;-81
2022/10/07 12:13:44;;;;;;;;;;;16.80;99.90;;;;;;5053963;28;19971;-80
2022/10/07 12:16:33;;;;;;;;;;;16.80;99.90;;;;;;5054626;28;19912;-81
2022/10/07 12:19:06;;;;;;;;;;;16.80;99.90;;;;;;5056393;28;20297;-83
2022/10/07 12:21:51;;;;;;;;;;;16.80;99.90;;;;;;5067212;28;19916;-82
2022/10/07 12:24:17;;;;;;;;;;;16.80;99.90;;;;;;5070878;28;19915;-83
2022/10/07 12:26:45;;;;;;;;;;;16.80;99.90;;;;;;5062157;28;19970;-83
2022/10/07 12:29:31;;;;;;;;;;;16.80;99.90;;;;;;5061473;28;19913;-83
2022/10/07 12:31:59;;;;;;;;;;;16.90;99.90;;;;;;5077142;28;19926;-83
2022/10/07 12:34:34;;;;;;;;;;;16.90;99.90;;;;;;5074122;28;19920;-81
2022/10/07 12:37:28;;;;;;;;;;;16.80;99.90;;;;;;5079105;28;19908;-84
2022/10/07 12:39:54;;;;;;;;;;;16.90;99.90;;;;;;5056981;28;20294;-81
2022/10/07 12:42:21;;;;;;;;;;;16.80;99.90;;;;;;5072815;28;19909;-82
2022/10/07 12:44:51;;;;;;;;;;;16.90;99.90;;;;;;5069001;28;20352;-82
2022/10/07 12:47:31;;;;;;;;;;;16.90;99.90;;;;;;5073872;28;19922;-82
2022/10/07 12:50:01;;;;;;;;;;;16.90;99.90;;;;;;5063386;28;19936;-79
2022/10/07 12:52:43;;;;;;;;;;;16.90;99.90;;;;;;5063865;28;19908;-80
2022/10/07 12:55:15;;;;;;;;;;;16.90;99.90;;;;;;5056756;28;19960;-79
2022/10/07 12:57:47;;;;;;;;;;;16.90;99.90;;;;;;5068707;28;20470;-79
2022/10/07 13:00:19;;;;;;;;;;;16.90;99.90;;;;;;5075062;28;20416;-81
2022/10/07 13:02:49;;;;;;;;;;;16.90;99.90;;;;;;5071922;28;19916;-80
2022/10/07 13:05:33;;;;;;;;;;;16.90;99.90;;;;;;5077920;28;19912;-80
2022/10/07 13:08:00;;;;;;;;;;;16.90;99.90;;;;;;5062734;28;20011;-80
2022/10/07 13:10:35;;;;;;;;;;;17.00;99.90;;;;;;5066349;28;19910;-79
2022/10/07 13:13:05;;;;;;;;;;;16.90;99.90;;;;;;5065005;28;19912;-80
2022/10/07 13:15:40;;;;;;;;;;;17.00;99.90;;;;;;5054258;28;19943;-81
2022/10/07 13:18:06;;;;;;;;;;;17.00;99.90;;;;;;5057394;28;20008;-84
2022/10/07 13:20:58;;;;;;;;;;;17.00;99.90;;;;;;5056219;28;19916;-81
2022/10/07 13:23:26;;;;;;;;;;;16.90;99.90;;;;;;5054271;28;19915;-80
2022/10/07 13:25:54;;;;;;;;;;;16.90;99.90;;;;;;5058492;28;19911;-81
2022/10/07 13:28:22;;;;;;;;;;;16.90;99.90;;;;;;5068077;28;20881;-82
2022/10/07 13:30:49;;;;;;;;;;;16.90;99.90;;;;;;5070897;28;20389;-76
2022/10/07 13:33:19;;;;;;;;;;;16.90;99.90;;;;;;5064875;28;19974;-83
2022/10/07 13:35:46;;;;;;;;;;;17.00;99.90;;;;;;5052562;28;19912;-83
2022/10/07 13:38:23;;;;;;;;;;;17.00;99.90;;;;;;5054150;28;20016;-84
2022/10/07 13:41:04;;;;;;;;;;;17.00;99.90;;;;;;5057959;28;19999;-80
2022/10/07 13:43:31;;;;;;;;;;;17.00;99.90;;;;;;5071587;28;19911;-85
2022/10/07 13:45:59;;;;;;;;;;;17.00;99.90;;;;;;5065003;28;19924;-85
2022/10/07 13:48:28;;;;;;;;;;;17.00;99.90;;;;;;5073328;28;19959;-79
2022/10/07 13:50:58;;;;;;;;;;;17.00;99.90;;;;;;5062429;28;20002;-78
2022/10/07 13:53:29;;;;;;;;;;;17.00;99.90;;;;;;5076813;28;20355;-75
2022/10/07 13:56:14;;;;;;;;;;;16.90;99.90;;;;;;5072220;28;19912;-81
2022/10/07 13:58:41;;;;;;;;;;;16.90;99.90;;;;;;5060071;28;19923;-85
2022/10/07 14:01:08;;;;;;;;;;;16.90;99.90;;;;;;5048780;28;20358;-83
2022/10/07 14:03:34;;;;;;;;;;;16.90;99.90;;;;;;5062424;28;20010;-85
2022/10/07 14:06:02;;;;;;;;;;;16.90;99.90;;;;;;5081280;28;19912;-82
2022/10/07 14:08:29;;;;;;;;;;;16.90;99.90;;;;;;5085602;28;19915;-82
2022/10/07 14:10:58;;;;;;;;;;;16.90;99.90;;;;;;5074566;28;19912;-82
2022/10/07 14:13:29;;;;;;;;;;;17.00;99.90;;;;;;5064879;28;19916;-83
2022/10/07 14:15:57;;;;;;;;;;;16.90;99.90;;;;;;5069054;28;19951;-83
2022/10/07 14:18:26;;;;;;;;;;;17.00;99.90;;;;;;5075760;28;19908;-82
2022/10/07 14:21:16;;;;;;;;;;;16.90;99.90;;;;;;5081184;28;19908;-83
2022/10/07 14:23:45;;;;;;;;;;;17.00;99.90;;;;;;5067126;28;20401;-83
2022/10/07 14:26:16;;;;;;;;;;;17.00;99.90;;;;;;5057855;28;19916;-81
2022/10/07 14:28:43;;;;;;;;;;;16.90;99.90;;;;;;5064978;28;19916;-79
2022/10/07 14:37:04;;;;;;;;;;;16.90;99.90;;;;;;5074016;28;19950;-82
2022/10/07 14:39:35;;;;;;;;;;;16.90;99.90;;;;;;5072211;28;20430;-84
2022/10/07 14:42:02;;;;;;;;;;;16.90;99.90;;;;;;5078004;28;19914;-82
2022/10/07 14:44:29;;;;;;;;;;;16.90;99.90;;;;;;5080125;28;20363;-82
2022/10/07 14:47:12;;;;;;;;;;;16.90;99.90;;;;;;5084660;28;19916;-82
2022/10/07 14:49:42;;;;;;;;;;;16.90;99.90;;;;;;5066397;28;20342;-85